sensor_id;sensor_type;location;lat;lon;timestamp;P1;durP1;ratioP1;P2;durP2;ratioP2
17228;SDS011;8731;50.364;8.958;2022-12-07T00:01:55;15.23;;;11.50;;
17228;SDS011;8731;50.364;8.958;2022-12-07T00:06:17;17.60;;;11.87;;
17228;SDS011;8731;50.364;8.958;2022-12-07T00:10:42;18.83;;;13.23;;
17228;SDS011;8731;50.364;8.958;2022-12-07T00:15:05;20.47;;;14.70;;
17228;SDS011;8731;50.364;8.958;2022-12-07T00:19:28;21.47;;;14.67;;
17228;SDS011;8731;50.364;8.958;2022-12-07T00:23:51;17.70;;;12.27;;
17228;SDS011;8731;50.364;8.958;2022-12-07T00:28:17;16.57;;;12.20;;
17228;SDS011;8731;50.364;8.958;2022-12-07T00:32:39;14.07;;;10.80;;
17228;SDS011;8731;50.364;8.958;2022-12-07T00:37:01;17.10;;;12.03;;
17228;SDS011;8731;50.364;8.958;2022-12-07T00:41:24;16.13;;;11.47;;
17228;SDS011;8731;50.364;8.958;2022-12-07T00:45:50;17.40;;;11.77;;
17228;SDS011;8731;50.364;8.958;2022-12-07T00:50:13;18.63;;;11.97;;
17228;SDS011;8731;50.364;8.958;2022-12-07T00:54:35;17.93;;;12.23;;
17228;SDS011;8731;50.364;8.958;2022-12-07T00:58:58;17.30;;;12.20;;
17228;SDS011;8731;50.364;8.958;2022-12-07T01:03:25;17.57;;;13.03;;
17228;SDS011;8731;50.364;8.958;2022-12-07T01:07:47;15.33;;;11.93;;
17228;SDS011;8731;50.364;8.958;2022-12-07T01:12:10;16.13;;;10.37;;
17228;SDS011;8731;50.364;8.958;2022-12-07T01:16:32;14.43;;;10.87;;
17228;SDS011;8731;50.364;8.958;2022-12-07T01:20:59;14.37;;;10.83;;
17228;SDS011;8731;50.364;8.958;2022-12-07T01:25:24;17.40;;;12.20;;
17228;SDS011;8731;50.364;8.958;2022-12-07T01:29:46;16.87;;;11.00;;
17228;SDS011;8731;50.364;8.958;2022-12-07T01:34:09;16.67;;;11.50;;
17228;SDS011;8731;50.364;8.958;2022-12-07T01:38:33;17.10;;;13.47;;
17228;SDS011;8731;50.364;8.958;2022-12-07T01:42:56;18.00;;;14.00;;
17228;SDS011;8731;50.364;8.958;2022-12-07T01:47:19;18.07;;;13.50;;
17228;SDS011;8731;50.364;8.958;2022-12-07T01:51:41;20.57;;;14.43;;
17228;SDS011;8731;50.364;8.958;2022-12-07T01:56:09;21.53;;;14.87;;
17228;SDS011;8731;50.364;8.958;2022-12-07T02:00:40;24.43;;;17.20;;
17228;SDS011;8731;50.364;8.958;2022-12-07T02:05:03;24.03;;;16.57;;
17228;SDS011;8731;50.364;8.958;2022-12-07T02:09:34;21.20;;;15.10;;
17228;SDS011;8731;50.364;8.958;2022-12-07T02:13:58;22.50;;;16.13;;
17228;SDS011;8731;50.364;8.958;2022-12-07T02:18:22;23.90;;;16.40;;
17228;SDS011;8731;50.364;8.958;2022-12-07T02:23:02;20.23;;;15.67;;
17228;SDS011;8731;50.364;8.958;2022-12-07T02:27:50;20.03;;;14.80;;
17228;SDS011;8731;50.364;8.958;2022-12-07T02:32:24;19.73;;;15.10;;
17228;SDS011;8731;50.364;8.958;2022-12-07T02:36:55;20.57;;;14.20;;
17228;SDS011;8731;50.364;8.958;2022-12-07T02:41:25;20.00;;;14.00;;
17228;SDS011;8731;50.364;8.958;2022-12-07T02:45:58;20.07;;;14.97;;
17228;SDS011;8731;50.364;8.958;2022-12-07T02:50:29;21.70;;;14.87;;
17228;SDS011;8731;50.364;8.958;2022-12-07T02:54:52;22.13;;;13.33;;
17228;SDS011;8731;50.364;8.958;2022-12-07T02:59:22;20.77;;;14.67;;
17228;SDS011;8731;50.364;8.958;2022-12-07T03:04:09;18.40;;;13.90;;
17228;SDS011;8731;50.364;8.958;2022-12-07T03:08:55;18.97;;;14.67;;
17228;SDS011;8731;50.364;8.958;2022-12-07T03:13:34;20.70;;;14.67;;
17228;SDS011;8731;50.364;8.958;2022-12-07T03:18:08;21.80;;;14.70;;
17228;SDS011;8731;50.364;8.958;2022-12-07T03:22:36;20.43;;;13.83;;
17228;SDS011;8731;50.364;8.958;2022-12-07T03:27:09;20.03;;;12.97;;
17228;SDS011;8731;50.364;8.958;2022-12-07T03:31:40;18.50;;;13.80;;
17228;SDS011;8731;50.364;8.958;2022-12-07T03:36:14;18.30;;;12.53;;
17228;SDS011;8731;50.364;8.958;2022-12-07T03:40:49;20.43;;;13.97;;
17228;SDS011;8731;50.364;8.958;2022-12-07T03:45:29;24.97;;;16.57;;
17228;SDS011;8731;50.364;8.958;2022-12-07T03:50:05;18.87;;;13.10;;
17228;SDS011;8731;50.364;8.958;2022-12-07T03:54:38;35.30;;;26.23;;
17228;SDS011;8731;50.364;8.958;2022-12-07T03:59:11;48.40;;;36.93;;
17228;SDS011;8731;50.364;8.958;2022-12-07T04:03:39;23.10;;;17.97;;
17228;SDS011;8731;50.364;8.958;2022-12-07T04:08:06;18.63;;;14.60;;
17228;SDS011;8731;50.364;8.958;2022-12-07T04:12:28;17.83;;;13.17;;
17228;SDS011;8731;50.364;8.958;2022-12-07T04:16:52;24.60;;;16.60;;
17228;SDS011;8731;50.364;8.958;2022-12-07T04:21:18;19.43;;;13.67;;
17228;SDS011;8731;50.364;8.958;2022-12-07T04:25:40;15.03;;;11.80;;
17228;SDS011;8731;50.364;8.958;2022-12-07T04:30:03;15.83;;;11.67;;
17228;SDS011;8731;50.364;8.958;2022-12-07T04:34:27;14.77;;;10.90;;
17228;SDS011;8731;50.364;8.958;2022-12-07T04:38:52;16.87;;;12.00;;
17228;SDS011;8731;50.364;8.958;2022-12-07T04:43:15;18.33;;;11.30;;
17228;SDS011;8731;50.364;8.958;2022-12-07T04:47:37;15.97;;;10.70;;
17228;SDS011;8731;50.364;8.958;2022-12-07T04:52:00;14.60;;;11.17;;
17228;SDS011;8731;50.364;8.958;2022-12-07T04:56:24;15.27;;;10.63;;
17228;SDS011;8731;50.364;8.958;2022-12-07T05:00:46;15.63;;;10.93;;
17228;SDS011;8731;50.364;8.958;2022-12-07T05:05:10;18.87;;;11.57;;
17228;SDS011;8731;50.364;8.958;2022-12-07T05:09:39;17.77;;;12.30;;
17228;SDS011;8731;50.364;8.958;2022-12-07T05:14:04;19.77;;;12.10;;
17228;SDS011;8731;50.364;8.958;2022-12-07T05:18:29;11.33;;;9.83;;
17228;SDS011;8731;50.364;8.958;2022-12-07T05:22:51;15.50;;;10.80;;
17228;SDS011;8731;50.364;8.958;2022-12-07T05:27:14;16.00;;;11.67;;
17228;SDS011;8731;50.364;8.958;2022-12-07T05:31:38;24.70;;;14.80;;
17228;SDS011;8731;50.364;8.958;2022-12-07T05:36:01;23.33;;;13.40;;
17228;SDS011;8731;50.364;8.958;2022-12-07T05:40:25;27.20;;;15.33;;
17228;SDS011;8731;50.364;8.958;2022-12-07T05:44:47;36.37;;;19.97;;
17228;SDS011;8731;50.364;8.958;2022-12-07T05:49:11;35.23;;;18.17;;
17228;SDS011;8731;50.364;8.958;2022-12-07T05:53:34;30.87;;;16.27;;
17228;SDS011;8731;50.364;8.958;2022-12-07T05:57:57;34.73;;;16.17;;
17228;SDS011;8731;50.364;8.958;2022-12-07T06:02:37;24.50;;;14.23;;
17228;SDS011;8731;50.364;8.958;2022-12-07T06:07:01;18.33;;;12.70;;
17228;SDS011;8731;50.364;8.958;2022-12-07T06:11:23;21.97;;;13.10;;
17228;SDS011;8731;50.364;8.958;2022-12-07T06:16:03;22.53;;;13.43;;
17228;SDS011;8731;50.364;8.958;2022-12-07T06:20:27;18.03;;;13.03;;
17228;SDS011;8731;50.364;8.958;2022-12-07T06:24:51;24.13;;;12.60;;
17228;SDS011;8731;50.364;8.958;2022-12-07T06:29:13;18.33;;;13.63;;
17228;SDS011;8731;50.364;8.958;2022-12-07T06:33:37;23.40;;;14.10;;
17228;SDS011;8731;50.364;8.958;2022-12-07T06:38:00;28.83;;;17.47;;
17228;SDS011;8731;50.364;8.958;2022-12-07T06:42:24;27.60;;;17.17;;
17228;SDS011;8731;50.364;8.958;2022-12-07T06:46:46;24.53;;;15.63;;
17228;SDS011;8731;50.364;8.958;2022-12-07T06:51:09;24.47;;;16.47;;
17228;SDS011;8731;50.364;8.958;2022-12-07T06:55:32;20.00;;;15.70;;
17228;SDS011;8731;50.364;8.958;2022-12-07T06:59:56;17.10;;;12.73;;
17228;SDS011;8731;50.364;8.958;2022-12-07T07:04:19;18.07;;;12.83;;
17228;SDS011;8731;50.364;8.958;2022-12-07T07:08:41;21.33;;;13.90;;
17228;SDS011;8731;50.364;8.958;2022-12-07T07:13:04;18.33;;;13.23;;
17228;SDS011;8731;50.364;8.958;2022-12-07T07:17:28;16.37;;;13.07;;
17228;SDS011;8731;50.364;8.958;2022-12-07T07:21:50;17.87;;;13.53;;
17228;SDS011;8731;50.364;8.958;2022-12-07T07:26:12;16.40;;;13.87;;
17228;SDS011;8731;50.364;8.958;2022-12-07T07:30:34;17.00;;;12.87;;
17228;SDS011;8731;50.364;8.958;2022-12-07T07:34:58;17.17;;;12.77;;
17228;SDS011;8731;50.364;8.958;2022-12-07T07:39:21;14.43;;;11.60;;
17228;SDS011;8731;50.364;8.958;2022-12-07T07:43:43;15.30;;;13.43;;
17228;SDS011;8731;50.364;8.958;2022-12-07T07:48:05;20.33;;;17.60;;
17228;SDS011;8731;50.364;8.958;2022-12-07T07:52:29;19.47;;;13.80;;
17228;SDS011;8731;50.364;8.958;2022-12-07T07:56:53;25.23;;;18.83;;
17228;SDS011;8731;50.364;8.958;2022-12-07T08:01:16;47.70;;;31.17;;
17228;SDS011;8731;50.364;8.958;2022-12-07T08:05:39;43.53;;;29.00;;
17228;SDS011;8731;50.364;8.958;2022-12-07T08:10:03;22.23;;;16.40;;
17228;SDS011;8731;50.364;8.958;2022-12-07T08:14:28;16.00;;;12.03;;
17228;SDS011;8731;50.364;8.958;2022-12-07T08:18:50;15.03;;;10.70;;
17228;SDS011;8731;50.364;8.958;2022-12-07T08:23:12;11.30;;;8.80;;
17228;SDS011;8731;50.364;8.958;2022-12-07T08:27:36;12.07;;;9.03;;
17228;SDS011;8731;50.364;8.958;2022-12-07T08:31:59;12.03;;;9.77;;
17228;SDS011;8731;50.364;8.958;2022-12-07T08:36:21;13.90;;;11.33;;
17228;SDS011;8731;50.364;8.958;2022-12-07T08:40:44;12.93;;;9.93;;
17228;SDS011;8731;50.364;8.958;2022-12-07T08:45:10;13.17;;;10.03;;
17228;SDS011;8731;50.364;8.958;2022-12-07T08:49:36;12.10;;;9.93;;
17228;SDS011;8731;50.364;8.958;2022-12-07T08:54:03;10.00;;;8.73;;
17228;SDS011;8731;50.364;8.958;2022-12-07T08:58:31;10.43;;;8.17;;
17228;SDS011;8731;50.364;8.958;2022-12-07T09:02:57;8.50;;;7.60;;
17228;SDS011;8731;50.364;8.958;2022-12-07T09:07:19;10.23;;;8.70;;
17228;SDS011;8731;50.364;8.958;2022-12-07T09:11:41;10.53;;;9.37;;
17228;SDS011;8731;50.364;8.958;2022-12-07T09:16:05;10.77;;;8.83;;
17228;SDS011;8731;50.364;8.958;2022-12-07T09:20:29;10.03;;;8.67;;
17228;SDS011;8731;50.364;8.958;2022-12-07T09:24:51;10.37;;;8.10;;
17228;SDS011;8731;50.364;8.958;2022-12-07T09:29:14;9.67;;;7.80;;
17228;SDS011;8731;50.364;8.958;2022-12-07T09:33:52;36.43;;;21.87;;
17228;SDS011;8731;50.364;8.958;2022-12-07T09:38:19;9.33;;;6.97;;
17228;SDS011;8731;50.364;8.958;2022-12-07T09:42:42;8.10;;;7.30;;
17228;SDS011;8731;50.364;8.958;2022-12-07T09:47:10;7.90;;;7.10;;
17228;SDS011;8731;50.364;8.958;2022-12-07T09:51:33;9.23;;;8.23;;
17228;SDS011;8731;50.364;8.958;2022-12-07T09:55:56;8.20;;;7.00;;
17228;SDS011;8731;50.364;8.958;2022-12-07T10:00:20;7.90;;;6.90;;
17228;SDS011;8731;50.364;8.958;2022-12-07T10:04:45;9.30;;;7.23;;
17228;SDS011;8731;50.364;8.958;2022-12-07T10:09:08;9.70;;;7.20;;
17228;SDS011;8731;50.364;8.958;2022-12-07T10:13:38;7.77;;;6.10;;
17228;SDS011;8731;50.364;8.958;2022-12-07T10:18:02;10.23;;;6.23;;
17228;SDS011;8731;50.364;8.958;2022-12-07T10:22:25;6.80;;;5.23;;
17228;SDS011;8731;50.364;8.958;2022-12-07T10:26:48;5.87;;;5.13;;
17228;SDS011;8731;50.364;8.958;2022-12-07T10:31:16;6.13;;;3.67;;
17228;SDS011;8731;50.364;8.958;2022-12-07T10:35:42;5.13;;;3.77;;
17228;SDS011;8731;50.364;8.958;2022-12-07T10:40:18;9.73;;;7.00;;
17228;SDS011;8731;50.364;8.958;2022-12-07T10:44:49;9.73;;;6.53;;
17228;SDS011;8731;50.364;8.958;2022-12-07T10:54:54;5.73;;;3.43;;
17228;SDS011;8731;50.364;8.958;2022-12-07T11:04:33;4.80;;;3.60;;
17228;SDS011;8731;50.364;8.958;2022-12-07T11:09:04;5.60;;;4.13;;
17228;SDS011;8731;50.364;8.958;2022-12-07T11:14:01;8.17;;;5.33;;
17228;SDS011;8731;50.364;8.958;2022-12-07T11:18:39;5.90;;;3.30;;
17228;SDS011;8731;50.364;8.958;2022-12-07T11:23:27;6.50;;;3.63;;
17228;SDS011;8731;50.364;8.958;2022-12-07T11:28:11;7.07;;;3.93;;
17228;SDS011;8731;50.364;8.958;2022-12-07T11:32:53;7.53;;;3.90;;
17228;SDS011;8731;50.364;8.958;2022-12-07T11:37:33;8.63;;;3.80;;
17228;SDS011;8731;50.364;8.958;2022-12-07T11:42:00;6.27;;;4.00;;
17228;SDS011;8731;50.364;8.958;2022-12-07T11:46:33;7.90;;;4.50;;
17228;SDS011;8731;50.364;8.958;2022-12-07T11:51:09;8.47;;;4.23;;
17228;SDS011;8731;50.364;8.958;2022-12-07T11:55:38;6.00;;;4.40;;
17228;SDS011;8731;50.364;8.958;2022-12-07T12:00:12;6.60;;;4.00;;
17228;SDS011;8731;50.364;8.958;2022-12-07T12:04:41;7.00;;;3.47;;
17228;SDS011;8731;50.364;8.958;2022-12-07T12:09:16;4.00;;;2.40;;
17228;SDS011;8731;50.364;8.958;2022-12-07T12:14:00;7.07;;;4.00;;
17228;SDS011;8731;50.364;8.958;2022-12-07T12:19:11;6.70;;;2.97;;
17228;SDS011;8731;50.364;8.958;2022-12-07T12:23:47;4.90;;;2.60;;
17228;SDS011;8731;50.364;8.958;2022-12-07T12:28:21;7.33;;;4.30;;
17228;SDS011;8731;50.364;8.958;2022-12-07T12:32:48;6.40;;;2.90;;
17228;SDS011;8731;50.364;8.958;2022-12-07T12:42:05;4.67;;;2.87;;
17228;SDS011;8731;50.364;8.958;2022-12-07T12:46:49;5.73;;;2.87;;
17228;SDS011;8731;50.364;8.958;2022-12-07T12:51:35;3.80;;;2.20;;
17228;SDS011;8731;50.364;8.958;2022-12-07T13:06:31;6.43;;;2.50;;
17228;SDS011;8731;50.364;8.958;2022-12-07T13:15:50;5.60;;;2.93;;
17228;SDS011;8731;50.364;8.958;2022-12-07T13:20:39;4.63;;;1.83;;
17228;SDS011;8731;50.364;8.958;2022-12-07T13:25:09;5.43;;;2.50;;
17228;SDS011;8731;50.364;8.958;2022-12-07T13:29:39;3.37;;;2.03;;
17228;SDS011;8731;50.364;8.958;2022-12-07T13:34:05;4.40;;;2.10;;
17228;SDS011;8731;50.364;8.958;2022-12-07T13:38:53;4.50;;;2.17;;
17228;SDS011;8731;50.364;8.958;2022-12-07T13:43:19;4.93;;;2.23;;
17228;SDS011;8731;50.364;8.958;2022-12-07T13:47:43;4.17;;;1.80;;
17228;SDS011;8731;50.364;8.958;2022-12-07T13:52:14;5.33;;;2.40;;
17228;SDS011;8731;50.364;8.958;2022-12-07T13:56:39;4.27;;;2.40;;
17228;SDS011;8731;50.364;8.958;2022-12-07T14:01:04;6.90;;;2.00;;
17228;SDS011;8731;50.364;8.958;2022-12-07T14:05:27;5.07;;;2.60;;
17228;SDS011;8731;50.364;8.958;2022-12-07T14:15:25;7.20;;;2.50;;
17228;SDS011;8731;50.364;8.958;2022-12-07T14:19:53;5.97;;;3.20;;
17228;SDS011;8731;50.364;8.958;2022-12-07T14:24:18;10.40;;;5.03;;
17228;SDS011;8731;50.364;8.958;2022-12-07T14:28:42;12.03;;;7.40;;
17228;SDS011;8731;50.364;8.958;2022-12-07T14:33:07;17.30;;;11.70;;
17228;SDS011;8731;50.364;8.958;2022-12-07T14:37:32;14.30;;;10.30;;
17228;SDS011;8731;50.364;8.958;2022-12-07T14:41:55;5.67;;;3.50;;
17228;SDS011;8731;50.364;8.958;2022-12-07T14:46:17;9.57;;;3.80;;
17228;SDS011;8731;50.364;8.958;2022-12-07T14:50:40;7.10;;;4.13;;
17228;SDS011;8731;50.364;8.958;2022-12-07T14:55:14;8.83;;;3.63;;
17228;SDS011;8731;50.364;8.958;2022-12-07T15:00:01;5.07;;;3.30;;
17228;SDS011;8731;50.364;8.958;2022-12-07T15:04:25;8.83;;;3.67;;
17228;SDS011;8731;50.364;8.958;2022-12-07T15:08:47;12.23;;;3.60;;
17228;SDS011;8731;50.364;8.958;2022-12-07T15:13:11;11.13;;;5.97;;
17228;SDS011;8731;50.364;8.958;2022-12-07T15:17:50;12.43;;;6.40;;
17228;SDS011;8731;50.364;8.958;2022-12-07T15:22:12;15.83;;;8.50;;
17228;SDS011;8731;50.364;8.958;2022-12-07T15:26:35;15.73;;;8.53;;
17228;SDS011;8731;50.364;8.958;2022-12-07T15:31:00;12.00;;;6.37;;
17228;SDS011;8731;50.364;8.958;2022-12-07T15:35:22;24.53;;;15.37;;
17228;SDS011;8731;50.364;8.958;2022-12-07T15:39:44;18.43;;;12.17;;
17228;SDS011;8731;50.364;8.958;2022-12-07T15:44:08;6.90;;;5.13;;
17228;SDS011;8731;50.364;8.958;2022-12-07T15:48:51;9.10;;;5.67;;
17228;SDS011;8731;50.364;8.958;2022-12-07T15:53:14;4.57;;;3.53;;
17228;SDS011;8731;50.364;8.958;2022-12-07T15:57:37;10.17;;;5.73;;
17228;SDS011;8731;50.364;8.958;2022-12-07T16:02:00;6.43;;;3.37;;
17228;SDS011;8731;50.364;8.958;2022-12-07T16:06:24;9.33;;;4.83;;
17228;SDS011;8731;50.364;8.958;2022-12-07T16:10:47;7.77;;;4.27;;
17228;SDS011;8731;50.364;8.958;2022-12-07T16:15:10;8.53;;;4.20;;
17228;SDS011;8731;50.364;8.958;2022-12-07T16:19:32;9.87;;;5.33;;
17228;SDS011;8731;50.364;8.958;2022-12-07T16:23:58;9.63;;;5.97;;
17228;SDS011;8731;50.364;8.958;2022-12-07T16:28:21;7.97;;;5.03;;
17228;SDS011;8731;50.364;8.958;2022-12-07T16:32:43;7.47;;;4.17;;
17228;SDS011;8731;50.364;8.958;2022-12-07T16:37:06;9.57;;;5.83;;
17228;SDS011;8731;50.364;8.958;2022-12-07T16:41:30;5.53;;;3.87;;
17228;SDS011;8731;50.364;8.958;2022-12-07T16:45:52;6.50;;;3.40;;
17228;SDS011;8731;50.364;8.958;2022-12-07T16:50:15;3.90;;;2.50;;
17228;SDS011;8731;50.364;8.958;2022-12-07T16:54:38;5.33;;;2.77;;
17228;SDS011;8731;50.364;8.958;2022-12-07T16:59:02;5.93;;;2.80;;
17228;SDS011;8731;50.364;8.958;2022-12-07T17:03:24;4.17;;;2.53;;
17228;SDS011;8731;50.364;8.958;2022-12-07T17:07:46;4.13;;;2.13;;
17228;SDS011;8731;50.364;8.958;2022-12-07T17:12:09;4.23;;;2.50;;
17228;SDS011;8731;50.364;8.958;2022-12-07T17:16:33;4.70;;;2.20;;
17228;SDS011;8731;50.364;8.958;2022-12-07T17:21:01;8.83;;;3.83;;
17228;SDS011;8731;50.364;8.958;2022-12-07T17:25:37;8.73;;;4.60;;
17228;SDS011;8731;50.364;8.958;2022-12-07T17:29:59;13.80;;;6.97;;
17228;SDS011;8731;50.364;8.958;2022-12-07T17:34:25;30.87;;;11.43;;
17228;SDS011;8731;50.364;8.958;2022-12-07T17:38:47;12.87;;;7.60;;
17228;SDS011;8731;50.364;8.958;2022-12-07T17:43:11;11.63;;;9.90;;
17228;SDS011;8731;50.364;8.958;2022-12-07T17:47:33;11.03;;;7.47;;
17228;SDS011;8731;50.364;8.958;2022-12-07T17:51:57;13.67;;;8.97;;
17228;SDS011;8731;50.364;8.958;2022-12-07T17:56:37;25.17;;;12.67;;
17228;SDS011;8731;50.364;8.958;2022-12-07T18:01:00;13.83;;;8.37;;
17228;SDS011;8731;50.364;8.958;2022-12-07T18:05:22;18.60;;;10.70;;
17228;SDS011;8731;50.364;8.958;2022-12-07T18:09:46;15.37;;;9.90;;
17228;SDS011;8731;50.364;8.958;2022-12-07T18:14:08;28.67;;;16.43;;
17228;SDS011;8731;50.364;8.958;2022-12-07T18:18:31;35.77;;;20.10;;
17228;SDS011;8731;50.364;8.958;2022-12-07T18:22:54;35.27;;;19.10;;
17228;SDS011;8731;50.364;8.958;2022-12-07T18:27:18;34.57;;;20.17;;
17228;SDS011;8731;50.364;8.958;2022-12-07T18:31:41;26.10;;;16.23;;
17228;SDS011;8731;50.364;8.958;2022-12-07T18:36:06;28.07;;;15.77;;
17228;SDS011;8731;50.364;8.958;2022-12-07T18:40:30;13.20;;;9.13;;
17228;SDS011;8731;50.364;8.958;2022-12-07T18:44:53;19.23;;;11.60;;
17228;SDS011;8731;50.364;8.958;2022-12-07T18:49:16;11.77;;;9.43;;
17228;SDS011;8731;50.364;8.958;2022-12-07T18:53:38;17.57;;;10.70;;
17228;SDS011;8731;50.364;8.958;2022-12-07T18:58:01;9.47;;;5.17;;
17228;SDS011;8731;50.364;8.958;2022-12-07T19:02:25;7.03;;;4.30;;
17228;SDS011;8731;50.364;8.958;2022-12-07T19:06:48;8.10;;;4.17;;
17228;SDS011;8731;50.364;8.958;2022-12-07T19:11:15;7.27;;;4.90;;
17228;SDS011;8731;50.364;8.958;2022-12-07T19:15:56;7.63;;;4.87;;
17228;SDS011;8731;50.364;8.958;2022-12-07T19:20:20;10.03;;;6.30;;
17228;SDS011;8731;50.364;8.958;2022-12-07T19:24:43;10.43;;;6.67;;
17228;SDS011;8731;50.364;8.958;2022-12-07T19:29:08;7.50;;;5.57;;
17228;SDS011;8731;50.364;8.958;2022-12-07T19:33:30;21.70;;;9.97;;
17228;SDS011;8731;50.364;8.958;2022-12-07T19:37:54;18.73;;;10.07;;
17228;SDS011;8731;50.364;8.958;2022-12-07T19:42:16;17.20;;;7.67;;
17228;SDS011;8731;50.364;8.958;2022-12-07T19:46:39;15.23;;;7.23;;
17228;SDS011;8731;50.364;8.958;2022-12-07T19:51:04;13.43;;;7.83;;
17228;SDS011;8731;50.364;8.958;2022-12-07T19:55:28;7.27;;;4.63;;
17228;SDS011;8731;50.364;8.958;2022-12-07T19:59:51;8.57;;;5.07;;
17228;SDS011;8731;50.364;8.958;2022-12-07T20:04:14;7.33;;;5.30;;
17228;SDS011;8731;50.364;8.958;2022-12-07T20:08:40;16.07;;;8.93;;
17228;SDS011;8731;50.364;8.958;2022-12-07T20:13:04;15.50;;;8.93;;
17228;SDS011;8731;50.364;8.958;2022-12-07T20:17:44;14.67;;;9.03;;
17228;SDS011;8731;50.364;8.958;2022-12-07T20:22:06;13.37;;;8.20;;
17228;SDS011;8731;50.364;8.958;2022-12-07T20:26:29;13.73;;;7.07;;
17228;SDS011;8731;50.364;8.958;2022-12-07T20:30:55;6.70;;;4.77;;
17228;SDS011;8731;50.364;8.958;2022-12-07T20:35:17;8.17;;;5.03;;
17228;SDS011;8731;50.364;8.958;2022-12-07T20:39:39;8.60;;;6.13;;
17228;SDS011;8731;50.364;8.958;2022-12-07T20:44:02;7.70;;;6.07;;
17228;SDS011;8731;50.364;8.958;2022-12-07T20:48:26;10.63;;;6.23;;
17228;SDS011;8731;50.364;8.958;2022-12-07T20:52:49;8.90;;;6.13;;
17228;SDS011;8731;50.364;8.958;2022-12-07T20:57:11;7.23;;;4.67;;
17228;SDS011;8731;50.364;8.958;2022-12-07T21:01:34;8.77;;;4.87;;
17228;SDS011;8731;50.364;8.958;2022-12-07T21:06:01;9.73;;;4.83;;
17228;SDS011;8731;50.364;8.958;2022-12-07T21:10:24;7.80;;;4.97;;
17228;SDS011;8731;50.364;8.958;2022-12-07T21:14:46;7.53;;;4.53;;
17228;SDS011;8731;50.364;8.958;2022-12-07T21:19:08;6.83;;;4.60;;
17228;SDS011;8731;50.364;8.958;2022-12-07T21:23:32;7.33;;;4.20;;
17228;SDS011;8731;50.364;8.958;2022-12-07T21:27:55;9.63;;;5.83;;
17228;SDS011;8731;50.364;8.958;2022-12-07T21:32:18;7.90;;;5.30;;
17228;SDS011;8731;50.364;8.958;2022-12-07T21:36:41;8.23;;;5.30;;
17228;SDS011;8731;50.364;8.958;2022-12-07T21:41:10;15.47;;;5.30;;
17228;SDS011;8731;50.364;8.958;2022-12-07T21:45:34;12.27;;;6.77;;
17228;SDS011;8731;50.364;8.958;2022-12-07T21:49:57;9.70;;;5.70;;
17228;SDS011;8731;50.364;8.958;2022-12-07T21:54:20;11.80;;;5.37;;
17228;SDS011;8731;50.364;8.958;2022-12-07T21:58:43;6.57;;;4.73;;
17228;SDS011;8731;50.364;8.958;2022-12-07T22:03:06;7.57;;;5.17;;
17228;SDS011;8731;50.364;8.958;2022-12-07T22:07:32;10.67;;;5.83;;
17228;SDS011;8731;50.364;8.958;2022-12-07T22:11:55;11.70;;;6.90;;
17228;SDS011;8731;50.364;8.958;2022-12-07T22:16:19;10.27;;;7.03;;
17228;SDS011;8731;50.364;8.958;2022-12-07T22:20:41;14.03;;;7.07;;
17228;SDS011;8731;50.364;8.958;2022-12-07T22:25:04;13.90;;;8.23;;
17228;SDS011;8731;50.364;8.958;2022-12-07T22:29:28;13.80;;;8.80;;
17228;SDS011;8731;50.364;8.958;2022-12-07T22:33:51;15.73;;;8.63;;
17228;SDS011;8731;50.364;8.958;2022-12-07T22:38:14;12.60;;;8.07;;
17228;SDS011;8731;50.364;8.958;2022-12-07T22:42:36;15.27;;;10.10;;
17228;SDS011;8731;50.364;8.958;2022-12-07T22:46:59;12.13;;;7.50;;
17228;SDS011;8731;50.364;8.958;2022-12-07T22:51:23;13.50;;;7.87;;
17228;SDS011;8731;50.364;8.958;2022-12-07T22:55:48;10.87;;;8.20;;
17228;SDS011;8731;50.364;8.958;2022-12-07T23:00:11;13.33;;;7.30;;
17228;SDS011;8731;50.364;8.958;2022-12-07T23:04:35;11.20;;;7.40;;
17228;SDS011;8731;50.364;8.958;2022-12-07T23:08:59;9.73;;;7.37;;
17228;SDS011;8731;50.364;8.958;2022-12-07T23:13:25;10.57;;;7.40;;
17228;SDS011;8731;50.364;8.958;2022-12-07T23:17:55;11.67;;;7.60;;
17228;SDS011;8731;50.364;8.958;2022-12-07T23:22:18;10.40;;;6.73;;
17228;SDS011;8731;50.364;8.958;2022-12-07T23:26:41;12.37;;;6.93;;
17228;SDS011;8731;50.364;8.958;2022-12-07T23:31:07;9.83;;;6.97;;
17228;SDS011;8731;50.364;8.958;2022-12-07T23:35:33;10.10;;;6.63;;
17228;SDS011;8731;50.364;8.958;2022-12-07T23:39:55;10.57;;;7.47;;
17228;SDS011;8731;50.364;8.958;2022-12-07T23:44:19;10.63;;;7.47;;
17228;SDS011;8731;50.364;8.958;2022-12-07T23:48:42;10.00;;;7.60;;
17228;SDS011;8731;50.364;8.958;2022-12-07T23:53:04;10.20;;;8.30;;
17228;SDS011;8731;50.364;8.958;2022-12-07T23:57:26;12.87;;;8.60;;
